Time,TemperatureF,DewpointF,PressureIn,WindDirection,WindDirectionDegrees,WindSpeedMPH,WindSpeedGustMPH,Humidity,HourlyPrecipIn,Conditions,Clouds,dailyrainin,SoftwareType,DateUTC
2013-04-02 00:09:00,47.0,46.0,30.07,West,266,2.0,-999.0,97,-99.99,,,0.00,weatherlink.com 1.10,2013-04-02 07:09:00,
2013-04-02 00:24:00,47.9,47.0,30.07,WNW,288,0.0,-999.0,96,-99.99,,,0.00,weatherlink.com 1.10,2013-04-02 07:24:00,
2013-04-02 00:39:00,47.7,46.0,30.07,NW,313,0.0,-999.0,95,-99.99,,,0.00,weatherlink.com 1.10,2013-04-02 07:39:00,
2013-04-02 00:54:00,47.6,46.0,30.08,NW,313,0.0,-999.0,95,-99.99,,,0.00,weatherlink.com 1.10,2013-04-02 07:54:00,
2013-04-02 01:09:00,47.3,46.0,30.08,NW,313,0.0,-999.0,95,-99.99,,,0.00,weatherlink.com 1.10,2013-04-02 08:09:00,
2013-04-02 01:24:00,46.8,46.0,30.09,NW,313,0.0,-999.0,96,-99.99,,,0.00,weatherlink.com 1.10,2013-04-02 08:24:00,
2013-04-02 01:39:00,46.5,46.0,30.09,NW,313,0.0,-999.0,96,-99.99,,,0.00,weatherlink.com 1.10,2013-04-02 08:39:00,
2013-04-02 01:54:00,46.5,46.0,30.09,NW,313,0.0,-999.0,97,-99.99,,,0.00,weatherlink.com 1.10,2013-04-02 08:54:00,
2013-04-02 02:09:00,46.4,46.0,30.09,NW,313,0.0,-999.0,97,-99.99,,,0.00,weatherlink.com 1.10,2013-04-02 09:09:00,
2013-04-02 02:24:00,46.7,46.0,30.09,NW,313,0.0,-999.0,98,-99.99,,,0.00,weatherlink.com 1.10,2013-04-02 09:24:00,
2013-04-02 02:39:00,47.0,47.0,30.09,NW,313,0.0,-999.0,98,-99.99,,,0.00,weatherlink.com 1.10,2013-04-02 09:39:00,
2013-04-02 02:54:00,47.3,47.0,30.09,NW,313,0.0,-999.0,98,-99.99,,,0.00,weatherlink.com 1.10,2013-04-02 09:54:00,
2013-04-02 03:09:00,47.6,47.0,30.09,NW,313,0.0,-999.0,98,-99.99,,,0.00,weatherlink.com 1.10,2013-04-02 10:09:00,
2013-04-02 03:24:00,47.6,47.0,30.09,NW,313,0.0,-999.0,98,-99.99,,,0.00,weatherlink.com 1.10,2013-04-02 10:24:00,
2013-04-02 03:39:00,47.7,47.0,30.09,NW,313,0.0,-999.0,98,-99.99,,,0.00,weatherlink.com 1.10,2013-04-02 10:39:00,
2013-04-02 03:54:00,47.9,47.0,30.09,NW,313,0.0,-999.0,98,-99.99,,,0.00,weatherlink.com 1.10,2013-04-02 10:54:00,
2013-04-02 04:09:00,48.2,47.0,30.09,NW,313,0.0,-999.0,97,-99.99,,,0.00,weatherlink.com 1.10,2013-04-02 11:09:00,
2013-04-02 04:24:00,48.2,47.0,30.09,NW,313,0.0,-999.0,97,-99.99,,,0.00,weatherlink.com 1.10,2013-04-02 11:24:00,
2013-04-02 04:39:00,48.2,47.0,30.09,NW,313,0.0,-999.0,97,-99.99,,,0.00,weatherlink.com 1.10,2013-04-02 11:39:00,
2013-04-02 04:54:00,48.0,47.0,30.09,NW,313,0.0,-999.0,97,-99.99,,,0.00,weatherlink.com 1.10,2013-04-02 11:54:00,
2013-04-02 05:09:00,48.0,47.0,30.09,WNW,284,0.0,-999.0,96,-99.99,,,0.00,weatherlink.com 1.10,2013-04-02 12:09:00,
2013-04-02 05:24:00,47.9,47.0,30.09,WNW,284,0.0,-999.0,95,-99.99,,,0.00,weatherlink.com 1.10,2013-04-02 12:24:00,
2013-04-02 05:39:00,47.4,46.0,30.09,WNW,284,0.0,-999.0,95,-99.99,,,0.00,weatherlink.com 1.10,2013-04-02 12:39:00,
2013-04-02 05:54:00,46.8,46.0,30.09,WNW,284,0.0,-999.0,95,-99.99,,,0.00,weatherlink.com 1.10,2013-04-02 12:54:00,
2013-04-02 06:09:00,46.5,46.0,30.10,WNW,284,0.0,-999.0,96,-99.99,,,0.00,weatherlink.com 1.10,2013-04-02 13:09:00,
2013-04-02 06:24:00,46.5,46.0,30.10,WNW,284,0.0,-999.0,96,-99.99,,,0.00,weatherlink.com 1.10,2013-04-02 13:24:00,
2013-04-02 06:39:00,46.4,45.0,30.10,WNW,284,0.0,-999.0,96,-99.99,,,0.00,weatherlink.com 1.10,2013-04-02 13:39:00,
2013-04-02 06:54:00,46.2,45.0,30.09,WNW,284,0.0,-999.0,97,-99.99,,,0.00,weatherlink.com 1.10,2013-04-02 13:54:00,
2013-04-02 07:09:00,46.2,45.0,30.09,WNW,284,0.0,-999.0,97,-99.99,,,0.00,weatherlink.com 1.10,2013-04-02 14:09:00,
2013-04-02 07:24:00,46.5,46.0,30.09,WNW,284,0.0,-999.0,97,-99.99,,,0.00,weatherlink.com 1.10,2013-04-02 14:24:00,
2013-04-02 07:39:00,46.8,46.0,30.10,WNW,284,0.0,-999.0,97,-99.99,,,0.00,weatherlink.com 1.10,2013-04-02 14:39:00,
2013-04-02 07:55:00,47.3,47.0,30.10,WNW,284,0.0,-999.0,97,-99.99,,,0.00,weatherlink.com 1.10,2013-04-02 14:55:00,
2013-04-02 08:10:00,47.7,47.0,30.10,North,349,0.0,-999.0,96,-99.99,,,0.00,weatherlink.com 1.10,2013-04-02 15:10:00,
2013-04-02 08:24:00,48.2,47.0,30.10,North,349,0.0,-999.0,96,-99.99,,,0.00,weatherlink.com 1.10,2013-04-02 15:24:00,
2013-04-02 08:40:00,48.6,47.0,30.10,North,350,0.0,-999.0,95,-99.99,,,0.00,weatherlink.com 1.10,2013-04-02 15:40:00,
2013-04-02 08:54:00,48.8,47.0,30.10,NNE,19,0.0,-999.0,92,-99.99,,,0.00,weatherlink.com 1.10,2013-04-02 15:54:00,
2013-04-02 09:10:00,49.4,47.0,30.10,NNE,19,0.0,-999.0,92,-99.99,,,0.00,weatherlink.com 1.10,2013-04-02 16:10:00,
2013-04-02 09:24:00,49.6,47.0,30.09,WNW,294,0.0,-999.0,91,-99.99,,,0.00,weatherlink.com 1.10,2013-04-02 16:24:00,
2013-04-02 09:40:00,49.9,47.0,30.09,WNW,294,0.0,-999.0,89,-99.99,,,0.00,weatherlink.com 1.10,2013-04-02 16:40:00,
2013-04-02 09:55:00,50.2,47.0,30.10,WSW,251,0.0,-999.0,88,-99.99,,,0.00,weatherlink.com 1.10,2013-04-02 16:55:00,
2013-04-02 10:09:00,51.0,48.0,30.10,West,281,0.0,-999.0,88,-99.99,,,0.00,weatherlink.com 1.10,2013-04-02 17:09:00,
2013-04-02 10:24:00,51.3,48.0,30.11,SE,129,0.0,-999.0,88,-99.99,,,0.00,weatherlink.com 1.10,2013-04-02 17:24:00,
2013-04-02 10:40:00,51.3,48.0,30.11,SE,124,0.0,-999.0,87,-99.99,,,0.00,weatherlink.com 1.10,2013-04-02 17:40:00,
2013-04-02 10:55:00,52.8,48.0,30.11,SSE,167,1.0,-999.0,85,-99.99,,,0.00,weatherlink.com 1.10,2013-04-02 17:55:00,
2013-04-02 11:09:00,53.5,48.0,30.10,ESE,103,0.0,-999.0,82,-99.99,,,0.00,weatherlink.com 1.10,2013-04-02 18:09:00,
2013-04-02 11:24:00,53.8,49.0,30.11,WNW,300,0.0,-999.0,83,-99.99,,,0.00,weatherlink.com 1.10,2013-04-02 18:24:00,
2013-04-02 11:40:00,54.5,49.0,30.11,NW,306,0.0,-999.0,83,-99.99,,,0.00,weatherlink.com 1.10,2013-04-02 18:40:00,
2013-04-02 11:55:00,56.5,49.0,30.10,WSW,239,0.0,-999.0,77,-99.99,,,0.00,weatherlink.com 1.10,2013-04-02 18:55:00,
2013-04-02 12:09:00,56.9,49.0,30.10,NW,309,1.0,-999.0,75,-99.99,,,0.00,weatherlink.com 1.10,2013-04-02 19:09:00,
2013-04-02 12:25:00,58.1,49.0,30.09,NW,306,0.0,-999.0,73,-99.99,,,0.00,weatherlink.com 1.10,2013-04-02 19:25:00,
2013-04-02 12:40:00,58.6,50.0,30.09,WNW,298,0.0,-999.0,74,-99.99,,,0.00,weatherlink.com 1.10,2013-04-02 19:40:00,
2013-04-02 12:54:00,59.8,50.0,30.09,NE,40,0.0,-999.0,70,-99.99,,,0.00,weatherlink.com 1.10,2013-04-02 19:54:00,
2013-04-02 13:24:00,60.4,49.0,30.09,SE,141,0.0,-999.0,67,-99.99,,,0.00,weatherlink.com 1.10,2013-04-02 20:24:00,
2013-04-02 13:39:00,62.0,51.0,30.09,WNW,295,0.0,-999.0,67,-99.99,,,0.00,weatherlink.com 1.10,2013-04-02 20:39:00,
2013-04-02 13:54:00,62.4,50.0,30.09,NNE,22,0.0,-999.0,64,-99.99,,,0.00,weatherlink.com 1.10,2013-04-02 20:54:00,
2013-04-02 14:10:00,63.5,51.0,30.07,West,271,2.0,-999.0,63,-99.99,,,0.00,weatherlink.com 1.10,2013-04-02 21:10:00,
2013-04-02 14:24:00,62.1,50.0,30.07,WSW,242,0.0,-999.0,64,-99.99,,,0.00,weatherlink.com 1.10,2013-04-02 21:24:00,
2013-04-02 14:39:00,61.8,52.0,30.07,WSW,242,0.0,-999.0,70,-99.99,,,0.00,weatherlink.com 1.10,2013-04-02 21:39:00,
2013-04-02 14:54:00,62.6,51.0,30.07,South,173,0.0,-999.0,66,-99.99,,,0.00,weatherlink.com 1.10,2013-04-02 21:54:00,
2013-04-02 15:09:00,63.5,51.0,30.07,SW,233,1.0,-999.0,63,-99.99,,,0.00,weatherlink.com 1.10,2013-04-02 22:09:00,
2013-04-02 15:24:00,64.2,50.0,30.06,WNW,283,0.0,-999.0,60,-99.99,,,0.00,weatherlink.com 1.10,2013-04-02 22:24:00,
2013-04-02 15:39:00,63.4,50.0,30.05,SSE,148,0.0,-999.0,63,-99.99,,,0.00,weatherlink.com 1.10,2013-04-02 22:39:00,
2013-04-02 15:54:00,63.5,53.0,30.05,East,96,2.0,-999.0,68,-99.99,,,0.00,weatherlink.com 1.10,2013-04-02 22:54:00,
2013-04-02 16:09:00,64.2,52.0,30.04,NE,39,1.0,-999.0,64,-99.99,,,0.00,weatherlink.com 1.10,2013-04-02 23:09:00,
2013-04-02 16:24:00,65.8,52.0,30.04,NNE,28,0.0,-999.0,61,-99.99,,,0.00,weatherlink.com 1.10,2013-04-02 23:24:00,
2013-04-02 16:39:00,64.8,50.0,30.04,NNE,25,3.0,-999.0,60,-99.99,,,0.00,weatherlink.com 1.10,2013-04-02 23:39:00,
2013-04-02 16:54:00,63.4,51.0,30.04,NNE,32,0.0,-999.0,64,-99.99,,,0.00,weatherlink.com 1.10,2013-04-02 23:54:00,
2013-04-02 17:09:00,62.9,50.0,30.03,NNE,32,1.0,-999.0,64,-99.99,,,0.00,weatherlink.com 1.10,2013-04-03 00:09:00,
2013-04-02 17:24:00,62.4,52.0,30.03,NE,42,0.0,-999.0,68,-99.99,,,0.00,weatherlink.com 1.10,2013-04-03 00:24:00,
2013-04-02 17:39:00,62.6,52.0,30.02,NE,42,0.0,-999.0,68,-99.99,,,0.00,weatherlink.com 1.10,2013-04-03 00:39:00,
2013-04-02 17:54:00,63.4,50.0,30.02,NE,42,0.0,-999.0,63,-99.99,,,0.00,weatherlink.com 1.10,2013-04-03 00:54:00,
2013-04-02 18:09:00,62.9,50.0,30.02,NE,42,0.0,-999.0,64,-99.99,,,0.00,weatherlink.com 1.10,2013-04-03 01:09:00,
2013-04-02 18:24:00,62.0,50.0,30.02,NE,42,0.0,-999.0,66,-99.99,,,0.00,weatherlink.com 1.10,2013-04-03 01:24:00,
2013-04-02 18:39:00,61.6,50.0,30.02,NE,42,0.0,-999.0,67,-99.99,,,0.00,weatherlink.com 1.10,2013-04-03 01:39:00,
2013-04-02 18:54:00,62.1,51.0,30.02,NE,42,0.0,-999.0,67,-99.99,,,0.00,weatherlink.com 1.10,2013-04-03 01:54:00,
2013-04-02 19:09:00,62.3,51.0,30.02,NE,42,0.0,-999.0,66,-99.99,,,0.00,weatherlink.com 1.10,2013-04-03 02:09:00,
2013-04-02 19:24:00,61.0,51.0,30.02,NW,315,0.0,-999.0,69,-99.99,,,0.00,weatherlink.com 1.10,2013-04-03 02:24:00,
2013-04-02 19:39:00,59.3,50.0,30.02,West,271,1.0,-999.0,70,-99.99,,,0.00,weatherlink.com 1.10,2013-04-03 02:39:00,
2013-04-02 19:54:00,58.1,49.0,30.02,WNW,299,0.0,-999.0,72,-99.99,,,0.00,weatherlink.com 1.10,2013-04-03 02:54:00,
2013-04-02 20:09:00,57.2,49.0,30.02,West,259,0.0,-999.0,73,-99.99,,,0.00,weatherlink.com 1.10,2013-04-03 03:09:00,
2013-04-02 20:24:00,56.7,49.0,30.02,West,274,0.0,-999.0,75,-99.99,,,0.00,weatherlink.com 1.10,2013-04-03 03:24:00,
2013-04-02 20:39:00,55.9,48.0,30.02,WSW,239,0.0,-999.0,75,-99.99,,,0.00,weatherlink.com 1.10,2013-04-03 03:39:00,
2013-04-02 20:54:00,55.9,47.0,30.03,WSW,251,0.0,-999.0,72,-99.99,,,0.00,weatherlink.com 1.10,2013-04-03 03:54:00,
2013-04-02 21:09:00,55.6,47.0,30.03,WSW,242,0.0,-999.0,73,-99.99,,,0.00,weatherlink.com 1.10,2013-04-03 04:09:00,
2013-04-02 21:24:00,55.1,47.0,30.03,WSW,249,0.0,-999.0,73,-99.99,,,0.00,weatherlink.com 1.10,2013-04-03 04:24:00,
2013-04-02 21:39:00,54.8,46.0,30.03,WSW,249,0.0,-999.0,73,-99.99,,,0.00,weatherlink.com 1.10,2013-04-03 04:39:00,
2013-04-02 21:54:00,53.6,48.0,30.04,NE,38,0.0,-999.0,80,-99.99,,,0.00,weatherlink.com 1.10,2013-04-03 04:54:00,
2013-04-02 22:09:00,53.5,48.0,30.04,NE,35,0.0,-999.0,81,-99.99,,,0.00,weatherlink.com 1.10,2013-04-03 05:09:00,
2013-04-02 22:24:00,53.1,48.0,30.04,NE,35,0.0,-999.0,82,-99.99,,,0.00,weatherlink.com 1.10,2013-04-03 05:24:00,
2013-04-02 22:39:00,52.3,48.0,30.04,NE,35,0.0,-999.0,84,-99.99,,,0.00,weatherlink.com 1.10,2013-04-03 05:39:00,
2013-04-02 22:54:00,51.6,48.0,30.04,NE,35,0.0,-999.0,86,-99.99,,,0.00,weatherlink.com 1.10,2013-04-03 05:54:00,
2013-04-02 23:09:00,51.4,47.0,30.04,NE,35,0.0,-999.0,85,-99.99,,,0.00,weatherlink.com 1.10,2013-04-03 06:09:00,
2013-04-02 23:24:00,51.0,47.0,30.04,NE,35,0.0,-999.0,85,-99.99,,,0.00,weatherlink.com 1.10,2013-04-03 06:24:00,
2013-04-02 23:39:00,50.4,47.0,30.04,NE,35,0.0,-999.0,88,-99.99,,,0.00,weatherlink.com 1.10,2013-04-03 06:39:00,
2013-04-02 23:54:00,49.5,46.0,30.04,NE,35,0.0,-999.0,88,-99.99,,,0.00,weatherlink.com 1.10,2013-04-03 06:54:00,